sensor_id;sensor_type;location;lat;lon;timestamp;pressure;altitude;pressure_sealevel;temperature;humidity
75549;BME280;64133;56.002;37.208;2024-01-10T00:00:00;97879.92;;;-2.42;87.22
75549;BME280;64133;56.002;37.208;2024-01-10T00:05:06;97876.36;;;-2.39;87.37
75549;BME280;64133;56.002;37.208;2024-01-10T00:10:11;97863.50;;;-2.32;87.67
75549;BME280;64133;56.002;37.208;2024-01-10T00:15:16;97875.68;;;-2.27;87.88
75549;BME280;64133;56.002;37.208;2024-01-10T00:20:22;97870.27;;;-2.22;87.82
75549;BME280;64133;56.002;37.208;2024-01-10T00:31:15;97875.59;;;-2.10;87.69
75549;BME280;64133;56.002;37.208;2024-01-10T00:36:20;97877.76;;;-2.02;87.72
75549;BME280;64133;56.002;37.208;2024-01-10T00:41:25;97892.92;;;-1.96;87.70
75549;BME280;64133;56.002;37.208;2024-01-10T00:46:30;97891.48;;;-1.86;87.09
75549;BME280;64133;56.002;37.208;2024-01-10T00:51:35;97910.69;;;-1.83;86.99
75549;BME280;64133;56.002;37.208;2024-01-10T00:56:40;97886.94;;;-1.73;86.79
75549;BME280;64133;56.002;37.208;2024-01-10T01:01:45;97916.63;;;-1.66;86.30
75549;BME280;64133;56.002;37.208;2024-01-10T01:06:50;97917.39;;;-1.64;85.61
75549;BME280;64133;56.002;37.208;2024-01-10T01:11:56;97943.22;;;-1.57;85.11
75549;BME280;64133;56.002;37.208;2024-01-10T01:17:01;97929.02;;;-1.64;85.15
75549;BME280;64133;56.002;37.208;2024-01-10T01:22:06;97934.75;;;-1.75;85.42
75549;BME280;64133;56.002;37.208;2024-01-10T01:27:11;97939.70;;;-1.79;86.12
75549;BME280;64133;56.002;37.208;2024-01-10T01:32:16;97968.08;;;-1.86;85.48
75549;BME280;64133;56.002;37.208;2024-01-10T01:37:21;97965.95;;;-1.87;84.33
75549;BME280;64133;56.002;37.208;2024-01-10T01:42:26;97985.02;;;-1.73;82.60
75549;BME280;64133;56.002;37.208;2024-01-10T01:47:31;97987.63;;;-1.98;82.18
75549;BME280;64133;56.002;37.208;2024-01-10T01:52:36;98031.97;;;-2.07;83.22
75549;BME280;64133;56.002;37.208;2024-01-10T01:57:41;98027.14;;;-2.13;84.16
75549;BME280;64133;56.002;37.208;2024-01-10T02:02:46;98020.33;;;-2.32;83.58
75549;BME280;64133;56.002;37.208;2024-01-10T02:07:51;98071.63;;;-2.34;82.06
75549;BME280;64133;56.002;37.208;2024-01-10T02:12:56;98091.43;;;-2.52;83.11
75549;BME280;64133;56.002;37.208;2024-01-10T02:18:01;98105.06;;;-2.67;85.89
75549;BME280;64133;56.002;37.208;2024-01-10T02:23:06;98130.81;;;-3.31;88.04
75549;BME280;64133;56.002;37.208;2024-01-10T02:28:11;98134.52;;;-3.37;87.50
75549;BME280;64133;56.002;37.208;2024-01-10T02:33:15;98153.78;;;-3.45;83.76
75549;BME280;64133;56.002;37.208;2024-01-10T02:38:20;98170.59;;;-3.47;81.98
75549;BME280;64133;56.002;37.208;2024-01-10T02:43:23;98195.41;;;-3.65;82.23
75549;BME280;64133;56.002;37.208;2024-01-10T02:48:28;98208.73;;;-3.86;83.44
75549;BME280;64133;56.002;37.208;2024-01-10T02:53:32;98238.82;;;-3.98;83.55
75549;BME280;64133;56.002;37.208;2024-01-10T02:58:37;98257.16;;;-4.27;82.20
75549;BME280;64133;56.002;37.208;2024-01-10T03:03:42;98257.48;;;-4.35;81.85
75549;BME280;64133;56.002;37.208;2024-01-10T03:08:45;98272.55;;;-4.82;80.09
75549;BME280;64133;56.002;37.208;2024-01-10T03:13:53;98314.92;;;-4.82;78.07
75549;BME280;64133;56.002;37.208;2024-01-10T03:18:55;98360.45;;;-5.10;78.16
75549;BME280;64133;56.002;37.208;2024-01-10T03:24:00;98347.03;;;-5.18;79.58
75549;BME280;64133;56.002;37.208;2024-01-10T03:29:05;98372.66;;;-5.42;78.58
75549;BME280;64133;56.002;37.208;2024-01-10T03:34:10;98375.02;;;-5.49;78.58
75549;BME280;64133;56.002;37.208;2024-01-10T03:39:15;98414.70;;;-5.86;78.41
75549;BME280;64133;56.002;37.208;2024-01-10T03:44:20;98421.88;;;-5.95;78.64
75549;BME280;64133;56.002;37.208;2024-01-10T03:49:25;98439.42;;;-5.96;79.75
75549;BME280;64133;56.002;37.208;2024-01-10T03:54:30;98460.10;;;-6.32;78.34
75549;BME280;64133;56.002;37.208;2024-01-10T03:59:35;98498.97;;;-6.47;78.14
75549;BME280;64133;56.002;37.208;2024-01-10T04:04:40;98525.03;;;-6.64;77.30
75549;BME280;64133;56.002;37.208;2024-01-10T04:09:49;98541.10;;;-6.75;77.04
75549;BME280;64133;56.002;37.208;2024-01-10T04:14:51;98559.12;;;-7.14;76.96
75549;BME280;64133;56.002;37.208;2024-01-10T04:19:56;98568.01;;;-7.29;76.72
75549;BME280;64133;56.002;37.208;2024-01-10T04:25:01;98578.50;;;-7.40;77.64
75549;BME280;64133;56.002;37.208;2024-01-10T04:30:08;98606.34;;;-7.47;77.56
75549;BME280;64133;56.002;37.208;2024-01-10T04:35:13;98601.32;;;-7.32;78.32
75549;BME280;64133;56.002;37.208;2024-01-10T04:40:18;98561.98;;;-7.85;78.21
75549;BME280;64133;56.002;37.208;2024-01-10T04:45:23;98634.23;;;-7.36;78.32
75549;BME280;64133;56.002;37.208;2024-01-10T04:50:28;98659.80;;;-7.35;77.96
75549;BME280;64133;56.002;37.208;2024-01-10T04:55:33;98665.53;;;-7.86;76.64
75549;BME280;64133;56.002;37.208;2024-01-10T05:00:38;98697.95;;;-8.12;77.16
75549;BME280;64133;56.002;37.208;2024-01-10T05:05:43;98705.94;;;-8.30;76.35
75549;BME280;64133;56.002;37.208;2024-01-10T05:10:48;98708.32;;;-8.44;78.41
75549;BME280;64133;56.002;37.208;2024-01-10T05:15:53;98726.95;;;-8.39;78.60
75549;BME280;64133;56.002;37.208;2024-01-10T05:20:57;98745.92;;;-8.29;77.51
75549;BME280;64133;56.002;37.208;2024-01-10T05:26:02;98760.91;;;-8.62;78.07
75549;BME280;64133;56.002;37.208;2024-01-10T05:31:07;98781.47;;;-8.70;77.44
75549;BME280;64133;56.002;37.208;2024-01-10T05:36:12;98781.00;;;-8.68;77.53
75549;BME280;64133;56.002;37.208;2024-01-10T05:41:17;98803.83;;;-8.31;77.12
75549;BME280;64133;56.002;37.208;2024-01-10T05:46:22;98822.28;;;-8.38;76.32
75549;BME280;64133;56.002;37.208;2024-01-10T05:51:28;98831.11;;;-8.62;75.70
75549;BME280;64133;56.002;37.208;2024-01-10T05:56:33;98844.96;;;-8.78;75.88
75549;BME280;64133;56.002;37.208;2024-01-10T06:01:38;98855.83;;;-8.64;76.03
75549;BME280;64133;56.002;37.208;2024-01-10T06:06:43;98879.85;;;-8.79;75.92
75549;BME280;64133;56.002;37.208;2024-01-10T06:11:48;98895.94;;;-9.12;75.47
75549;BME280;64133;56.002;37.208;2024-01-10T06:16:53;98910.22;;;-8.97;75.00
75549;BME280;64133;56.002;37.208;2024-01-10T06:21:58;98926.11;;;-9.11;74.72
75549;BME280;64133;56.002;37.208;2024-01-10T06:27:03;98931.08;;;-8.96;74.65
75549;BME280;64133;56.002;37.208;2024-01-10T06:32:09;98951.28;;;-8.77;75.41
75549;BME280;64133;56.002;37.208;2024-01-10T06:37:14;98970.39;;;-8.76;75.20
75549;BME280;64133;56.002;37.208;2024-01-10T06:42:19;98977.44;;;-8.58;74.63
75549;BME280;64133;56.002;37.208;2024-01-10T06:47:24;98986.55;;;-8.75;73.93
75549;BME280;64133;56.002;37.208;2024-01-10T06:52:29;98991.63;;;-8.72;73.57
75549;BME280;64133;56.002;37.208;2024-01-10T06:57:34;99003.13;;;-9.19;74.22
75549;BME280;64133;56.002;37.208;2024-01-10T07:02:39;99007.63;;;-8.99;73.99
75549;BME280;64133;56.002;37.208;2024-01-10T07:07:44;99012.69;;;-8.94;73.86
75549;BME280;64133;56.002;37.208;2024-01-10T07:12:49;99027.20;;;-8.99;73.53
75549;BME280;64133;56.002;37.208;2024-01-10T07:17:55;99039.60;;;-8.61;73.23
75549;BME280;64133;56.002;37.208;2024-01-10T07:23:00;99044.41;;;-8.35;73.15
75549;BME280;64133;56.002;37.208;2024-01-10T07:28:05;99056.44;;;-8.10;72.38
75549;BME280;64133;56.002;37.208;2024-01-10T07:33:09;99025.81;;;-8.46;69.34
75549;BME280;64133;56.002;37.208;2024-01-10T07:38:14;99064.34;;;-8.31;71.15
75549;BME280;64133;56.002;37.208;2024-01-10T07:43:19;99064.59;;;-7.47;71.36
75549;BME280;64133;56.002;37.208;2024-01-10T07:48:24;99083.93;;;-7.60;70.41
75549;BME280;64133;56.002;37.208;2024-01-10T07:53:29;99085.42;;;-7.45;69.42
75549;BME280;64133;56.002;37.208;2024-01-10T07:58:37;99082.41;;;-7.14;68.25
75549;BME280;64133;56.002;37.208;2024-01-10T08:03:42;99077.56;;;-7.63;66.62
75549;BME280;64133;56.002;37.208;2024-01-10T08:08:47;99085.57;;;-7.87;68.48
75549;BME280;64133;56.002;37.208;2024-01-10T08:13:52;99091.70;;;-7.67;68.41
75549;BME280;64133;56.002;37.208;2024-01-10T08:18:57;99082.55;;;-7.83;67.09
75549;BME280;64133;56.002;37.208;2024-01-10T08:24:02;99084.17;;;-7.79;67.39
75549;BME280;64133;56.002;37.208;2024-01-10T08:29:07;99077.28;;;-7.73;67.60
75549;BME280;64133;56.002;37.208;2024-01-10T08:34:12;99082.31;;;-7.65;66.81
75549;BME280;64133;56.002;37.208;2024-01-10T08:39:17;99077.07;;;-7.57;66.67
75549;BME280;64133;56.002;37.208;2024-01-10T08:44:23;99093.44;;;-7.69;66.12
75549;BME280;64133;56.002;37.208;2024-01-10T08:49:28;99089.69;;;-7.44;66.51
75549;BME280;64133;56.002;37.208;2024-01-10T08:54:35;99100.55;;;-7.01;65.78
75549;BME280;64133;56.002;37.208;2024-01-10T08:59:43;99099.19;;;-7.22;66.01
75549;BME280;64133;56.002;37.208;2024-01-10T09:04:52;99114.20;;;-7.97;67.15
75549;BME280;64133;56.002;37.208;2024-01-10T09:09:57;99115.61;;;-8.07;67.24
75549;BME280;64133;56.002;37.208;2024-01-10T09:15:02;99133.94;;;-8.08;66.38
75549;BME280;64133;56.002;37.208;2024-01-10T09:20:09;99122.51;;;-7.43;66.32
75549;BME280;64133;56.002;37.208;2024-01-10T09:25:14;99128.67;;;-6.71;65.54
75549;BME280;64133;56.002;37.208;2024-01-10T09:30:19;99136.08;;;-6.28;64.25
75549;BME280;64133;56.002;37.208;2024-01-10T09:35:24;99128.40;;;-6.06;64.16
75549;BME280;64133;56.002;37.208;2024-01-10T09:40:29;99134.09;;;-5.71;63.02
75549;BME280;64133;56.002;37.208;2024-01-10T09:45:35;99145.09;;;-6.84;63.11
75549;BME280;64133;56.002;37.208;2024-01-10T09:50:41;99142.75;;;-6.96;62.56
75549;BME280;64133;56.002;37.208;2024-01-10T09:55:44;99136.06;;;-6.79;63.15
75549;BME280;64133;56.002;37.208;2024-01-10T10:00:49;99143.59;;;-7.27;63.87
75549;BME280;64133;56.002;37.208;2024-01-10T10:05:55;99139.91;;;-6.79;63.86
75549;BME280;64133;56.002;37.208;2024-01-10T10:11:00;99120.25;;;-7.04;62.88
75549;BME280;64133;56.002;37.208;2024-01-10T10:16:06;99129.28;;;-7.09;62.36
75549;BME280;64133;56.002;37.208;2024-01-10T10:21:12;99132.83;;;-7.86;64.15
75549;BME280;64133;56.002;37.208;2024-01-10T10:26:17;99146.27;;;-8.07;65.38
75549;BME280;64133;56.002;37.208;2024-01-10T10:31:24;99148.80;;;-8.44;65.89
75549;BME280;64133;56.002;37.208;2024-01-10T10:36:30;99143.67;;;-8.42;66.78
75549;BME280;64133;56.002;37.208;2024-01-10T10:41:36;99148.02;;;-8.11;67.37
75549;BME280;64133;56.002;37.208;2024-01-10T10:46:41;99138.30;;;-7.45;66.03
75549;BME280;64133;56.002;37.208;2024-01-10T10:51:46;99132.00;;;-6.40;65.18
75549;BME280;64133;56.002;37.208;2024-01-10T10:56:51;99122.47;;;-6.56;62.90
75549;BME280;64133;56.002;37.208;2024-01-10T11:01:56;99138.17;;;-7.04;63.75
75549;BME280;64133;56.002;37.208;2024-01-10T11:07:01;99127.87;;;-7.01;63.95
75549;BME280;64133;56.002;37.208;2024-01-10T11:12:14;99128.89;;;-6.83;64.36
75549;BME280;64133;56.002;37.208;2024-01-10T11:17:28;99138.41;;;-7.53;64.16
75549;BME280;64133;56.002;37.208;2024-01-10T11:22:40;99141.61;;;-7.70;64.94
75549;BME280;64133;56.002;37.208;2024-01-10T11:27:44;99127.53;;;-7.37;65.04
75549;BME280;64133;56.002;37.208;2024-01-10T11:32:49;99148.70;;;-7.95;65.63
75549;BME280;64133;56.002;37.208;2024-01-10T11:37:54;99150.44;;;-7.63;65.87
75549;BME280;64133;56.002;37.208;2024-01-10T11:42:59;99146.45;;;-7.83;65.80
75549;BME280;64133;56.002;37.208;2024-01-10T11:48:05;99143.30;;;-8.49;65.96
75549;BME280;64133;56.002;37.208;2024-01-10T11:53:10;99154.70;;;-8.39;67.34
75549;BME280;64133;56.002;37.208;2024-01-10T11:58:15;99153.48;;;-8.04;67.01
75549;BME280;64133;56.002;37.208;2024-01-10T12:03:20;99151.84;;;-8.11;67.12
75549;BME280;64133;56.002;37.208;2024-01-10T12:08:25;99145.97;;;-8.18;67.12
75549;BME280;64133;56.002;37.208;2024-01-10T12:13:30;99149.46;;;-8.26;67.04
75549;BME280;64133;56.002;37.208;2024-01-10T12:18:35;99141.31;;;-8.21;67.32
75549;BME280;64133;56.002;37.208;2024-01-10T12:23:41;99131.83;;;-8.51;67.29
75549;BME280;64133;56.002;37.208;2024-01-10T12:28:55;99132.46;;;-8.76;67.50
75549;BME280;64133;56.002;37.208;2024-01-10T12:34:01;99142.13;;;-8.60;67.67
75549;BME280;64133;56.002;37.208;2024-01-10T12:39:06;99144.91;;;-8.88;68.18
75549;BME280;64133;56.002;37.208;2024-01-10T12:44:11;99135.70;;;-9.08;68.91
75549;BME280;64133;56.002;37.208;2024-01-10T12:49:16;99147.97;;;-9.02;68.78
75549;BME280;64133;56.002;37.208;2024-01-10T12:54:24;99135.25;;;-9.05;69.37
75549;BME280;64133;56.002;37.208;2024-01-10T12:59:29;99129.87;;;-9.29;69.08
75549;BME280;64133;56.002;37.208;2024-01-10T13:04:34;99115.05;;;-9.35;69.78
75549;BME280;64133;56.002;37.208;2024-01-10T13:09:39;99122.56;;;-9.14;70.18
75549;BME280;64133;56.002;37.208;2024-01-10T13:14:44;99110.95;;;-8.99;69.76
75549;BME280;64133;56.002;37.208;2024-01-10T13:19:49;99110.25;;;-9.19;69.73
75549;BME280;64133;56.002;37.208;2024-01-10T13:24:55;99105.16;;;-9.18;70.26
75549;BME280;64133;56.002;37.208;2024-01-10T13:30:00;99087.74;;;-9.21;69.95
75549;BME280;64133;56.002;37.208;2024-01-10T13:35:06;99071.90;;;-9.07;70.64
75549;BME280;64133;56.002;37.208;2024-01-10T13:40:11;99078.95;;;-9.40;70.10
75549;BME280;64133;56.002;37.208;2024-01-10T13:45:17;99064.63;;;-9.00;70.32
75549;BME280;64133;56.002;37.208;2024-01-10T13:50:22;99066.56;;;-9.32;70.23
75549;BME280;64133;56.002;37.208;2024-01-10T13:55:27;99061.44;;;-9.26;71.13
75549;BME280;64133;56.002;37.208;2024-01-10T14:00:32;99055.84;;;-9.20;70.34
75549;BME280;64133;56.002;37.208;2024-01-10T14:05:37;99036.95;;;-9.53;71.48
75549;BME280;64133;56.002;37.208;2024-01-10T14:10:43;99018.80;;;-9.12;70.83
75549;BME280;64133;56.002;37.208;2024-01-10T14:15:48;99007.28;;;-9.07;71.64
75549;BME280;64133;56.002;37.208;2024-01-10T14:20:53;99002.97;;;-8.99;70.67
75549;BME280;64133;56.002;37.208;2024-01-10T14:25:59;99007.14;;;-9.42;71.16
75549;BME280;64133;56.002;37.208;2024-01-10T14:31:04;99004.88;;;-9.23;71.45
75549;BME280;64133;56.002;37.208;2024-01-10T14:51:59;98980.84;;;-8.99;71.43
75549;BME280;64133;56.002;37.208;2024-01-10T15:02:47;98982.90;;;-9.41;71.53
75549;BME280;64133;56.002;37.208;2024-01-10T15:07:52;98989.18;;;-9.28;71.71
75549;BME280;64133;56.002;37.208;2024-01-10T15:12:57;98981.04;;;-9.20;71.79
75549;BME280;64133;56.002;37.208;2024-01-10T15:18:02;98972.61;;;-9.27;71.82
75549;BME280;64133;56.002;37.208;2024-01-10T15:23:07;98954.30;;;-9.25;72.75
75549;BME280;64133;56.002;37.208;2024-01-10T15:28:13;98947.88;;;-9.20;72.56
75549;BME280;64133;56.002;37.208;2024-01-10T15:33:18;98946.72;;;-9.31;72.02
75549;BME280;64133;56.002;37.208;2024-01-10T15:38:23;98942.63;;;-9.49;72.94
75549;BME280;64133;56.002;37.208;2024-01-10T15:43:27;98929.08;;;-9.55;73.49
75549;BME280;64133;56.002;37.208;2024-01-10T15:48:33;98929.21;;;-9.24;73.35
75549;BME280;64133;56.002;37.208;2024-01-10T15:53:38;98929.48;;;-9.07;73.04
75549;BME280;64133;56.002;37.208;2024-01-10T15:58:43;98913.45;;;-9.20;73.13
75549;BME280;64133;56.002;37.208;2024-01-10T16:03:48;98911.24;;;-9.12;73.22
75549;BME280;64133;56.002;37.208;2024-01-10T16:08:54;98903.73;;;-9.25;73.13
75549;BME280;64133;56.002;37.208;2024-01-10T16:13:59;98895.70;;;-9.29;73.96
75549;BME280;64133;56.002;37.208;2024-01-10T16:19:06;98875.83;;;-9.41;73.73
75549;BME280;64133;56.002;37.208;2024-01-10T16:24:11;98864.89;;;-9.53;74.07
75549;BME280;64133;56.002;37.208;2024-01-10T16:29:17;98848.72;;;-9.49;74.55
75549;BME280;64133;56.002;37.208;2024-01-10T16:34:22;98835.38;;;-9.74;74.95
75549;BME280;64133;56.002;37.208;2024-01-10T16:39:27;98829.41;;;-9.70;75.42
75549;BME280;64133;56.002;37.208;2024-01-10T16:44:32;98806.58;;;-9.82;75.57
75549;BME280;64133;56.002;37.208;2024-01-10T16:49:39;98781.20;;;-9.92;76.00
75549;BME280;64133;56.002;37.208;2024-01-10T16:54:46;98767.23;;;-9.98;76.54
75549;BME280;64133;56.002;37.208;2024-01-10T16:59:52;98749.28;;;-9.85;76.76
75549;BME280;64133;56.002;37.208;2024-01-10T17:04:57;98734.48;;;-9.91;76.95
75549;BME280;64133;56.002;37.208;2024-01-10T17:10:02;98711.38;;;-9.74;76.91
75549;BME280;64133;56.002;37.208;2024-01-10T17:15:09;98699.02;;;-9.70;77.16
75549;BME280;64133;56.002;37.208;2024-01-10T17:25:46;98538.82;;;-10.64;77.51
75549;BME280;64133;56.002;37.208;2024-01-10T17:30:51;98658.49;;;-9.93;77.84
75549;BME280;64133;56.002;37.208;2024-01-10T17:35:56;98638.55;;;-9.93;78.32
75549;BME280;64133;56.002;37.208;2024-01-10T17:41:04;98620.23;;;-9.87;78.44
75549;BME280;64133;56.002;37.208;2024-01-10T17:46:09;98613.86;;;-9.87;78.53
75549;BME280;64133;56.002;37.208;2024-01-10T17:51:15;98607.03;;;-9.84;78.75
75549;BME280;64133;56.002;37.208;2024-01-10T17:56:20;98592.55;;;-9.81;78.74
75549;BME280;64133;56.002;37.208;2024-01-10T18:01:26;98574.72;;;-9.81;78.79
75549;BME280;64133;56.002;37.208;2024-01-10T18:06:31;98552.23;;;-9.81;80.00
75549;BME280;64133;56.002;37.208;2024-01-10T18:11:36;98539.83;;;-9.76;80.24
75549;BME280;64133;56.002;37.208;2024-01-10T18:16:41;98524.41;;;-9.65;80.85
75549;BME280;64133;56.002;37.208;2024-01-10T18:21:47;98501.17;;;-9.75;80.86
75549;BME280;64133;56.002;37.208;2024-01-10T18:26:52;98499.58;;;-9.54;81.20
75549;BME280;64133;56.002;37.208;2024-01-10T18:31:58;98481.38;;;-9.56;81.39
75549;BME280;64133;56.002;37.208;2024-01-10T18:37:03;98454.14;;;-9.53;81.19
75549;BME280;64133;56.002;37.208;2024-01-10T18:42:08;98435.95;;;-9.58;80.78
75549;BME280;64133;56.002;37.208;2024-01-10T18:47:13;98426.59;;;-9.56;80.63
75549;BME280;64133;56.002;37.208;2024-01-10T18:52:18;98417.03;;;-9.44;80.68
75549;BME280;64133;56.002;37.208;2024-01-10T18:57:25;98389.47;;;-9.47;80.27
75549;BME280;64133;56.002;37.208;2024-01-10T19:08:07;98347.28;;;-9.40;81.84
75549;BME280;64133;56.002;37.208;2024-01-10T19:13:12;98336.83;;;-9.27;81.69
75549;BME280;64133;56.002;37.208;2024-01-10T19:18:17;98318.72;;;-9.34;81.70
75549;BME280;64133;56.002;37.208;2024-01-10T19:23:22;98298.50;;;-9.44;81.95
75549;BME280;64133;56.002;37.208;2024-01-10T19:28:30;98279.16;;;-9.33;82.65
75549;BME280;64133;56.002;37.208;2024-01-10T19:33:35;98257.24;;;-9.21;82.67
75549;BME280;64133;56.002;37.208;2024-01-10T19:38:40;98238.06;;;-9.18;83.24
75549;BME280;64133;56.002;37.208;2024-01-10T19:43:45;98213.36;;;-9.16;83.14
75549;BME280;64133;56.002;37.208;2024-01-10T19:48:50;98196.83;;;-9.17;83.30
75549;BME280;64133;56.002;37.208;2024-01-10T19:53:55;98178.09;;;-9.16;83.34
75549;BME280;64133;56.002;37.208;2024-01-10T19:59:00;98165.39;;;-9.18;83.23
75549;BME280;64133;56.002;37.208;2024-01-10T20:04:06;98149.28;;;-9.02;83.43
75549;BME280;64133;56.002;37.208;2024-01-10T20:09:11;98130.77;;;-9.10;83.25
75549;BME280;64133;56.002;37.208;2024-01-10T20:14:16;98109.09;;;-9.10;83.71
75549;BME280;64133;56.002;37.208;2024-01-10T20:19:21;98087.39;;;-9.08;83.78
75549;BME280;64133;56.002;37.208;2024-01-10T20:24:26;98056.74;;;-9.07;83.93
75549;BME280;64133;56.002;37.208;2024-01-10T20:29:31;98045.30;;;-8.91;84.11
75549;BME280;64133;56.002;37.208;2024-01-10T20:34:36;98020.87;;;-8.83;84.14
75549;BME280;64133;56.002;37.208;2024-01-10T20:39:44;98002.77;;;-8.74;83.92
75549;BME280;64133;56.002;37.208;2024-01-10T20:44:49;97984.53;;;-8.76;83.98
75549;BME280;64133;56.002;37.208;2024-01-10T20:49:54;97966.59;;;-8.73;84.45
75549;BME280;64133;56.002;37.208;2024-01-10T20:54:59;97936.86;;;-8.74;84.84
75549;BME280;64133;56.002;37.208;2024-01-10T21:00:06;97921.05;;;-8.72;85.04
75549;BME280;64133;56.002;37.208;2024-01-10T21:05:11;97905.98;;;-8.65;85.05
75549;BME280;64133;56.002;37.208;2024-01-10T21:10:16;97877.94;;;-8.52;85.49
75549;BME280;64133;56.002;37.208;2024-01-10T21:15:21;97865.56;;;-8.51;85.18
75549;BME280;64133;56.002;37.208;2024-01-10T21:20:26;97842.81;;;-8.44;85.24
75549;BME280;64133;56.002;37.208;2024-01-10T21:25:31;97813.48;;;-8.45;85.62
75549;BME280;64133;56.002;37.208;2024-01-10T21:30:36;97793.42;;;-8.43;85.66
75549;BME280;64133;56.002;37.208;2024-01-10T21:35:41;97775.02;;;-8.39;85.66
75549;BME280;64133;56.002;37.208;2024-01-10T21:40:47;97751.35;;;-8.32;86.06
75549;BME280;64133;56.002;37.208;2024-01-10T21:45:52;97732.16;;;-8.18;87.23
75549;BME280;64133;56.002;37.208;2024-01-10T21:50:57;97704.07;;;-8.06;87.23
75549;BME280;64133;56.002;37.208;2024-01-10T21:56:07;97682.45;;;-7.96;87.37
75549;BME280;64133;56.002;37.208;2024-01-10T22:01:14;97671.45;;;-7.86;87.44
75549;BME280;64133;56.002;37.208;2024-01-10T22:06:19;97646.91;;;-7.78;87.81
75549;BME280;64133;56.002;37.208;2024-01-10T22:11:24;97626.30;;;-7.74;87.21
75549;BME280;64133;56.002;37.208;2024-01-10T22:16:30;97602.26;;;-7.58;87.42
75549;BME280;64133;56.002;37.208;2024-01-10T22:21:35;97587.75;;;-7.57;87.28
75549;BME280;64133;56.002;37.208;2024-01-10T22:26:40;97555.76;;;-7.56;87.02
75549;BME280;64133;56.002;37.208;2024-01-10T22:31:45;97528.38;;;-7.42;86.88
75549;BME280;64133;56.002;37.208;2024-01-10T22:36:50;97516.41;;;-7.52;86.72
75549;BME280;64133;56.002;37.208;2024-01-10T22:41:55;97491.30;;;-7.42;87.27
75549;BME280;64133;56.002;37.208;2024-01-10T22:47:00;97466.62;;;-7.33;87.62
75549;BME280;64133;56.002;37.208;2024-01-10T22:52:06;97453.02;;;-7.34;87.09
75549;BME280;64133;56.002;37.208;2024-01-10T22:57:11;97430.52;;;-7.25;87.21
75549;BME280;64133;56.002;37.208;2024-01-10T23:02:16;97406.22;;;-7.25;87.56
75549;BME280;64133;56.002;37.208;2024-01-10T23:07:21;97393.41;;;-7.05;88.58
75549;BME280;64133;56.002;37.208;2024-01-10T23:12:26;97371.84;;;-6.99;88.88
75549;BME280;64133;56.002;37.208;2024-01-10T23:17:31;97347.95;;;-6.90;89.25
75549;BME280;64133;56.002;37.208;2024-01-10T23:22:37;97335.27;;;-6.82;89.40
75549;BME280;64133;56.002;37.208;2024-01-10T23:27:41;97320.16;;;-6.51;89.96
75549;BME280;64133;56.002;37.208;2024-01-10T23:32:46;97299.30;;;-6.52;89.85
75549;BME280;64133;56.002;37.208;2024-01-10T23:37:51;97280.23;;;-6.55;89.49
75549;BME280;64133;56.002;37.208;2024-01-10T23:42:56;97260.31;;;-6.48;88.91
75549;BME280;64133;56.002;37.208;2024-01-10T23:48:01;97241.48;;;-6.30;88.72
75549;BME280;64133;56.002;37.208;2024-01-10T23:53:06;97186.47;;;-6.40;88.51
75549;BME280;64133;56.002;37.208;2024-01-10T23:58:11;97214.27;;;-6.07;88.22
